This is the latest recevied weather packets stored in our database for station/object OK1TBF-15. If no packets are shown the sender has not sent any weather packets the latest 10 day(s).
| Time | Temp. | Humidity | Pressure | Rain* | Wind** | Luminosity | Snow |
|---|---|---|---|---|---|---|---|
| 1778117865 | 11.67° C | 82% | 1008.2 hPa | - | - | - | - |
| 1778117265 | 12.22° C | 81% | 1008.3 hPa | - | - | - | - |
| 1778116665 | 12.22° C | 80% | 1008 hPa | - | - | - | - |
| 1778116065 | 11.67° C | 80% | 1007.8 hPa | - | - | - | - |
| 1778115465 | 12.22° C | 80% | 1007.9 hPa | - | - | - | - |
| 1778114865 | 12.22° C | 79% | 1007.8 hPa | - | - | - | - |
| 1778114265 | 12.22° C | 79% | 1007.7 hPa | - | - | - | - |
| 1778113665 | 12.22° C | 78% | 1007.3 hPa | - | - | - | - |
| 1778113065 | 11.67° C | 80% | 1007.2 hPa | - | - | - | - |
| 1778112465 | 11.67° C | 81% | 1007.1 hPa | - | - | - | - |
| 1778111865 | 11.67° C | 81% | 1006.7 hPa | - | - | - | - |
| 1778111265 | 11.67° C | 81% | 1007.1 hPa | - | - | - | - |
| 1778110667 | 11.67° C | 82% | 1007.1 hPa | - | - | - | - |
| 1778110065 | 11.67° C | 81% | 1007 hPa | - | - | - | - |
| 1778109465 | 11.67° C | 82% | 1007.2 hPa | - | - | - | - |
| 1778108865 | 11.67° C | 81% | 1007.2 hPa | - | - | - | - |
| 1778108265 | 11.67° C | 81% | 1007.4 hPa | - | - | - | - |
| 1778107665 | 12.22° C | 77% | 1007.4 hPa | - | - | - | - |
| 1778107065 | 12.78° C | 76% | 1007.2 hPa | - | - | - | - |
| 1778106465 | 13.33° C | 75% | 1006.9 hPa | - | - | - | - |
| 1778105865 | 13.89° C | 73% | 1006.6 hPa | - | - | - | - |
| 1778105266 | 13.89° C | 72% | 1006.2 hPa | - | - | - | - |
| 1778104665 | 14.44° C | 68% | 1006 hPa | - | - | - | - |
| 1778104065 | 13.89° C | 70% | 1005.6 hPa | - | - | - | - |
| 1778103466 | 13.89° C | 70% | 1005.6 hPa | - | - | - | - |
* Rain since midnight (hover to see other rain measurements)
** Current wind speed in m/s (hover to see current wind gust speed)